Time;durP1;ratioP1;P1;durP2;ratioP2;P2;SDS_P1;SDS_P2;PMS_P1;PMS_P2;Temp;Humidity;BMP_temperature;BMP_pressure;BME280_temperature;BME280_humidity;BME280_pressure;Samples;Min_cycle;Max_cycle;Signal;HPM_P1;HPM_P2
2023/11/20 00:01:11;;;;;;;15.30;2.53;;;;;;;;;;5104312;28;20255;-86
2023/11/20 00:03:36;;;;;;;14.60;2.30;;;;;;;;;;5106307;28;20351;-86
2023/11/20 00:06:01;;;;;;;10.90;2.20;;;;;;;;;;5107052;28;20363;-86
2023/11/20 00:08:27;;;;;;;15.77;2.42;;;;;;;;;;5103981;28;20039;-86
2023/11/20 00:10:52;;;;;;;14.13;2.47;;;;;;;;;;5111509;28;20020;-86
2023/11/20 00:13:17;;;;;;;18.80;2.75;;;;;;;;;;5110474;28;20044;-85
2023/11/20 00:15:42;;;;;;;16.73;2.20;;;;;;;;;;5100932;28;20031;-86
2023/11/20 00:18:08;;;;;;;19.33;2.43;;;;;;;;;;5093099;28;20268;-86
2023/11/20 00:20:33;;;;;;;16.77;2.75;;;;;;;;;;5103140;28;20252;-86
2023/11/20 00:22:58;;;;;;;15.15;2.85;;;;;;;;;;5095325;28;20405;-85
2023/11/20 00:25:24;;;;;;;17.20;2.83;;;;;;;;;;5101158;28;20028;-86
2023/11/20 00:27:50;;;;;;;20.80;3.00;;;;;;;;;;5103142;28;20028;-90
2023/11/20 00:30:16;;;;;;;16.70;2.75;;;;;;;;;;5089470;28;20335;-85
2023/11/20 00:32:41;;;;;;;13.63;2.25;;;;;;;;;;5096318;28;20206;-86
2023/11/20 00:35:06;;;;;;;15.37;2.50;;;;;;;;;;5106436;28;20035;-86
2023/11/20 00:37:31;;;;;;;24.88;2.90;;;;;;;;;;5105991;28;20020;-86
2023/11/20 00:39:57;;;;;;;14.37;2.20;;;;;;;;;;5106514;28;20039;-85
2023/11/20 00:42:22;;;;;;;11.57;2.00;;;;;;;;;;5094505;28;20264;-85
2023/11/20 00:44:47;;;;;;;12.95;2.58;;;;;;;;;;5111884;28;20364;-86
2023/11/20 00:47:12;;;;;;;18.60;3.07;;;;;;;;;;5099659;28;20469;-86
2023/11/20 00:49:38;;;;;;;21.77;2.73;;;;;;;;;;5095073;28;20019;-85
2023/11/20 00:52:03;;;;;;;18.08;2.55;;;;;;;;;;5097456;28;20037;-85
2023/11/20 00:54:28;;;;;;;16.00;2.25;;;;;;;;;;5096174;28;20461;-86
2023/11/20 00:56:53;;;;;;;17.13;3.33;;;;;;;;;;5094428;28;20145;-86
2023/11/20 00:59:19;;;;;;;18.17;2.70;;;;;;;;;;5087379;28;20069;-85
2023/11/20 01:01:44;;;;;;;23.60;3.00;;;;;;;;;;5088253;28;20040;-86
2023/11/20 01:04:09;;;;;;;14.43;1.95;;;;;;;;;;5097674;28;20271;-86
2023/11/20 01:06:40;;;;;;;18.00;2.50;;;;;;;;;;5098056;28;20035;-86
2023/11/20 01:09:06;;;;;;;15.50;2.60;;;;;;;;;;5095591;28;20094;-88
2023/11/20 01:11:32;;;;;;;18.75;2.70;;;;;;;;;;5087177;28;20442;-86
2023/11/20 01:13:59;;;;;;;12.93;2.08;;;;;;;;;;5103262;28;20023;-86
2023/11/20 01:16:25;;;;;;;11.60;2.35;;;;;;;;;;5100916;28;20046;-85
2023/11/20 01:18:51;;;;;;;16.77;2.65;;;;;;;;;;5106809;28;20457;-87
2023/11/20 01:21:17;;;;;;;22.63;2.55;;;;;;;;;;5106272;28;20518;-87
2023/11/20 01:23:42;;;;;;;21.20;2.70;;;;;;;;;;5108365;28;20472;-85
2023/11/20 01:26:07;;;;;;;14.03;2.60;;;;;;;;;;5110552;28;20063;-86
2023/11/20 01:28:32;;;;;;;18.83;2.57;;;;;;;;;;5108586;28;20114;-87
2023/11/20 01:30:57;;;;;;;18.80;2.87;;;;;;;;;;5109037;28;20022;-86
2023/11/20 01:33:23;;;;;;;12.07;2.00;;;;;;;;;;5101553;28;20024;-85
2023/11/20 01:35:48;;;;;;;19.63;2.67;;;;;;;;;;5113059;28;20147;-85
2023/11/20 01:38:13;;;;;;;18.73;2.58;;;;;;;;;;5103736;28;20269;-86
2023/11/20 01:40:38;;;;;;;17.70;2.78;;;;;;;;;;5095076;28;20444;-86
2023/11/20 01:43:04;;;;;;;17.92;2.88;;;;;;;;;;5105159;28;20019;-86
2023/11/20 01:45:29;;;;;;;14.90;2.40;;;;;;;;;;5113316;28;20034;-86
2023/11/20 01:47:54;;;;;;;15.33;3.00;;;;;;;;;;5095533;28;20744;-86
2023/11/20 01:50:19;;;;;;;18.15;2.80;;;;;;;;;;5106557;28;20020;-87
2023/11/20 01:52:48;;;;;;;12.52;2.03;;;;;;;;;;5113462;28;20098;-86
2023/11/20 01:55:13;;;;;;;16.67;2.50;;;;;;;;;;5095711;28;20058;-86
2023/11/20 01:57:41;;;;;;;14.23;2.30;;;;;;;;;;5091696;28;20060;-86
2023/11/20 02:00:09;;;;;;;14.57;2.40;;;;;;;;;;5113912;28;20027;-86
2023/11/20 02:02:37;;;;;;;10.23;2.85;;;;;;;;;;5113795;28;20020;-85
2023/11/20 02:05:02;;;;;;;16.15;2.72;;;;;;;;;;5112931;28;20020;-86
2023/11/20 02:07:27;;;;;;;12.93;2.30;;;;;;;;;;5111645;28;20032;-86
2023/11/20 02:09:53;;;;;;;16.77;2.63;;;;;;;;;;5110945;28;20099;-86
2023/11/20 02:12:18;;;;;;;17.30;2.13;;;;;;;;;;5116342;28;20070;-86
2023/11/20 02:14:43;;;;;;;18.63;2.60;;;;;;;;;;5117530;28;20270;-85
2023/11/20 02:17:08;;;;;;;27.30;3.93;;;;;;;;;;5117552;28;20387;-86
2023/11/20 02:19:33;;;;;;;20.30;2.57;;;;;;;;;;5113181;28;20708;-87
2023/11/20 02:21:59;;;;;;;17.43;2.83;;;;;;;;;;5097047;28;20027;-86
2023/11/20 02:24:26;;;;;;;13.63;2.55;;;;;;;;;;5117406;28;20240;-85
2023/11/20 02:27:10;;;;;;;13.88;2.42;;;;;;;;;;5117236;28;20491;-85
2023/11/20 02:29:41;;;;;;;15.15;2.60;;;;;;;;;;5101272;28;20027;-87
2023/11/20 02:32:06;;;;;;;16.27;2.22;;;;;;;;;;5095868;28;20445;-85
2023/11/20 02:34:31;;;;;;;15.73;2.63;;;;;;;;;;5099667;28;20060;-86
2023/11/20 02:36:57;;;;;;;13.95;2.17;;;;;;;;;;5105161;28;20604;-85
2023/11/20 02:39:23;;;;;;;14.52;2.67;;;;;;;;;;5107946;28;20016;-86
2023/11/20 02:41:49;;;;;;;16.43;3.03;;;;;;;;;;5108087;28;20020;-86
2023/11/20 02:44:15;;;;;;;14.05;2.17;;;;;;;;;;5103561;28;20464;-85
2023/11/20 02:46:40;;;;;;;18.70;2.72;;;;;;;;;;5100218;28;20020;-86
2023/11/20 02:49:05;;;;;;;15.17;2.70;;;;;;;;;;5103938;28;20473;-85
2023/11/20 02:51:30;;;;;;;16.10;2.47;;;;;;;;;;5095990;28;20030;-85
2023/11/20 02:53:56;;;;;;;12.97;2.57;;;;;;;;;;5112392;28;20015;-86
2023/11/20 02:56:21;;;;;;;18.20;2.20;;;;;;;;;;5106551;28;20252;-86
2023/11/20 02:58:46;;;;;;;16.90;2.50;;;;;;;;;;5104814;28;20020;-86
2023/11/20 03:01:11;;;;;;;16.50;2.87;;;;;;;;;;5104491;28;20332;-85
2023/11/20 03:03:37;;;;;;;17.20;2.40;;;;;;;;;;5104581;28;20020;-86
2023/11/20 03:06:02;;;;;;;21.42;2.47;;;;;;;;;;5099444;28;20025;-86
2023/11/20 03:08:27;;;;;;;16.77;3.28;;;;;;;;;;5084005;28;20032;-86
2023/11/20 03:10:52;;;;;;;12.67;2.43;;;;;;;;;;5102683;28;20031;-86
2023/11/20 03:13:18;;;;;;;10.57;2.47;;;;;;;;;;5104582;28;20288;-85
2023/11/20 03:15:43;;;;;;;19.77;2.33;;;;;;;;;;5094521;28;20020;-86
2023/11/20 03:18:08;;;;;;;14.80;2.22;;;;;;;;;;5108733;28;20016;-85
2023/11/20 03:20:34;;;;;;;25.20;3.08;;;;;;;;;;5104755;28;20056;-85
2023/11/20 03:22:59;;;;;;;18.02;3.08;;;;;;;;;;5108100;28;20026;-86
2023/11/20 03:25:24;;;;;;;14.50;1.92;;;;;;;;;;5095970;28;20071;-85
2023/11/20 03:27:53;;;;;;;13.80;2.20;;;;;;;;;;5100441;28;20436;-86
2023/11/20 03:30:19;;;;;;;19.42;2.58;;;;;;;;;;5100890;28;20036;-85
2023/11/20 03:32:44;;;;;;;24.23;2.97;;;;;;;;;;5104348;28;20077;-86
2023/11/20 03:35:09;;;;;;;17.37;2.63;;;;;;;;;;5100707;28;20046;-86
2023/11/20 03:37:34;;;;;;;10.27;2.17;;;;;;;;;;5094879;28;20019;-86
2023/11/20 03:40:00;;;;;;;18.37;2.77;;;;;;;;;;5100336;28;20016;-86
2023/11/20 03:42:25;;;;;;;19.45;2.58;;;;;;;;;;5102856;28;20023;-86
2023/11/20 03:44:52;;;;;;;19.13;2.47;;;;;;;;;;5099451;28;20020;-86
2023/11/20 03:47:17;;;;;;;18.58;2.47;;;;;;;;;;5098361;28;20059;-86
2023/11/20 03:49:43;;;;;;;13.93;2.70;;;;;;;;;;5097763;28;20067;-85
2023/11/20 03:52:08;;;;;;;19.33;3.53;;;;;;;;;;5093490;28;20107;-86
2023/11/20 03:54:33;;;;;;;18.10;2.57;;;;;;;;;;5106550;28;20464;-86
2023/11/20 03:56:58;;;;;;;15.98;2.47;;;;;;;;;;5105537;28;20033;-87
2023/11/20 03:59:24;;;;;;;13.83;2.50;;;;;;;;;;5098914;28;20016;-85
2023/11/20 04:01:50;;;;;;;16.80;2.47;;;;;;;;;;5102715;28;20012;-85
2023/11/20 04:04:15;;;;;;;24.08;3.45;;;;;;;;;;5105719;28;20261;-86
2023/11/20 04:06:40;;;;;;;22.00;2.78;;;;;;;;;;5111549;28;20480;-85
2023/11/20 04:09:05;;;;;;;19.27;2.53;;;;;;;;;;5103337;28;20104;-86
2023/11/20 04:11:30;;;;;;;16.70;2.13;;;;;;;;;;5109572;28;20147;-86
2023/11/20 04:13:56;;;;;;;26.57;3.13;;;;;;;;;;5102392;28;20023;-85
2023/11/20 04:16:21;;;;;;;14.80;2.50;;;;;;;;;;5092769;28;20367;-86
2023/11/20 04:18:46;;;;;;;12.03;2.17;;;;;;;;;;5104105;28;20125;-86
2023/11/20 04:21:11;;;;;;;17.07;2.40;;;;;;;;;;5115259;28;20244;-86
2023/11/20 04:23:37;;;;;;;16.80;3.07;;;;;;;;;;5106585;28;20264;-86
2023/11/20 04:26:02;;;;;;;19.08;2.55;;;;;;;;;;5104330;28;20016;-86
2023/11/20 04:28:28;;;;;;;18.38;2.58;;;;;;;;;;5093013;28;20358;-85
2023/11/20 04:30:53;;;;;;;16.15;2.20;;;;;;;;;;5077154;28;20051;-86
2023/11/20 04:33:18;;;;;;;24.97;3.10;;;;;;;;;;5111986;28;20475;-86
2023/11/20 04:35:45;;;;;;;22.98;2.60;;;;;;;;;;5090448;28;20708;-86
2023/11/20 04:38:10;;;;;;;15.23;2.17;;;;;;;;;;5096938;28;20035;-86
2023/11/20 04:40:35;;;;;;;14.60;1.83;;;;;;;;;;5097625;28;20080;-86
2023/11/20 04:43:00;;;;;;;14.50;2.70;;;;;;;;;;5101871;28;20291;-87
2023/11/20 04:45:25;;;;;;;18.73;2.80;;;;;;;;;;5112512;28;20407;-86
2023/11/20 04:47:51;;;;;;;17.57;2.43;;;;;;;;;;5113663;28;20075;-86
2023/11/20 04:50:16;;;;;;;15.53;3.13;;;;;;;;;;5100398;28;20023;-88
2023/11/20 04:52:41;;;;;;;16.63;2.55;;;;;;;;;;5106564;28;20360;-85
2023/11/20 04:55:06;;;;;;;19.37;3.00;;;;;;;;;;5100093;28;20176;-86
2023/11/20 04:57:33;;;;;;;13.15;1.95;;;;;;;;;;5101977;28;20024;-88
2023/11/20 05:00:00;;;;;;;17.42;2.40;;;;;;;;;;5101128;28;20085;-85
2023/11/20 05:02:26;;;;;;;16.27;2.30;;;;;;;;;;5106291;28;20022;-86
2023/11/20 05:04:51;;;;;;;18.58;2.42;;;;;;;;;;5096802;28;20095;-86
2023/11/20 05:07:16;;;;;;;16.33;2.30;;;;;;;;;;5099586;28;20032;-85
2023/11/20 05:09:42;;;;;;;13.98;1.88;;;;;;;;;;5094247;28;20027;-86
2023/11/20 05:12:07;;;;;;;12.90;2.40;;;;;;;;;;5093836;28;20044;-86
2023/11/20 05:14:33;;;;;;;19.13;3.15;;;;;;;;;;5093756;28;20016;-85
2023/11/20 05:16:58;;;;;;;15.85;2.83;;;;;;;;;;5091927;28;20416;-85
2023/11/20 05:19:23;;;;;;;15.13;2.53;;;;;;;;;;5094098;28;20024;-85
2023/11/20 05:21:50;;;;;;;12.27;2.67;;;;;;;;;;5092812;28;20256;-86
2023/11/20 05:24:15;;;;;;;18.42;2.47;;;;;;;;;;5093749;28;20012;-86
2023/11/20 05:26:40;;;;;;;13.57;2.55;;;;;;;;;;5093999;28;20031;-85
2023/11/20 05:29:05;;;;;;;15.70;2.50;;;;;;;;;;5092640;28;20023;-85
2023/11/20 05:31:31;;;;;;;16.50;2.47;;;;;;;;;;5092379;28;20273;-86
2023/11/20 05:33:56;;;;;;;15.13;2.47;;;;;;;;;;5092554;28;20253;-85
2023/11/20 05:36:22;;;;;;;16.67;2.67;;;;;;;;;;5093791;28;20031;-86
2023/11/20 05:38:47;;;;;;;18.90;3.00;;;;;;;;;;5092743;28;20020;-86
2023/11/20 05:41:12;;;;;;;16.33;2.50;;;;;;;;;;5093870;28;20028;-86
2023/11/20 05:43:39;;;;;;;13.10;2.87;;;;;;;;;;5093339;28;20252;-85
2023/11/20 05:46:04;;;;;;;17.38;2.67;;;;;;;;;;5091015;28;20295;-86
2023/11/20 05:48:30;;;;;;;16.73;2.27;;;;;;;;;;5082870;28;20024;-86
2023/11/20 05:50:55;;;;;;;16.23;2.42;;;;;;;;;;5092424;28;20265;-85
2023/11/20 05:53:20;;;;;;;14.53;2.50;;;;;;;;;;5092082;28;20445;-86
2023/11/20 05:55:47;;;;;;;15.33;2.20;;;;;;;;;;5089001;28;20081;-86
2023/11/20 05:58:12;;;;;;;15.07;3.20;;;;;;;;;;5093336;28;20516;-85
2023/11/20 06:00:37;;;;;;;13.67;2.30;;;;;;;;;;5092329;28;20099;-85
2023/11/20 06:03:02;;;;;;;19.63;3.03;;;;;;;;;;5093620;28;20012;-85
2023/11/20 06:05:28;;;;;;;20.88;2.70;;;;;;;;;;5092803;28;20040;-85
2023/11/20 06:07:53;;;;;;;9.25;2.40;;;;;;;;;;5093379;28;20453;-86
2023/11/20 06:10:18;;;;;;;14.33;3.00;;;;;;;;;;5093396;28;20369;-86
2023/11/20 06:12:44;;;;;;;14.75;2.88;;;;;;;;;;5089476;28;20398;-86
2023/11/20 06:15:09;;;;;;;13.60;2.40;;;;;;;;;;5093553;28;20035;-86
2023/11/20 06:17:34;;;;;;;9.00;2.57;;;;;;;;;;5092950;28;20249;-86
2023/11/20 06:19:59;;;;;;;24.13;3.22;;;;;;;;;;5093467;28;20617;-85
2023/11/20 06:22:24;;;;;;;14.43;2.97;;;;;;;;;;5093128;28;20021;-85
2023/11/20 06:24:50;;;;;;;14.37;3.23;;;;;;;;;;5093175;28;20264;-85
2023/11/20 06:27:15;;;;;;;16.33;3.10;;;;;;;;;;5093308;28;20059;-86
2023/11/20 06:29:41;;;;;;;12.77;2.53;;;;;;;;;;5087409;28;20272;-86
2023/11/20 06:32:06;;;;;;;12.25;2.22;;;;;;;;;;5092779;28;20413;-86
2023/11/20 06:34:32;;;;;;;10.60;2.70;;;;;;;;;;5093037;28;20167;-85
2023/11/20 06:36:57;;;;;;;14.13;2.70;;;;;;;;;;5093241;28;20601;-86
2023/11/20 06:39:23;;;;;;;14.70;2.90;;;;;;;;;;5091681;28;20070;-85
2023/11/20 06:41:50;;;;;;;17.23;2.93;;;;;;;;;;5093171;28;20252;-86
2023/11/20 06:44:15;;;;;;;13.65;2.88;;;;;;;;;;5084743;28;20024;-86
2023/11/20 06:46:40;;;;;;;13.80;3.80;;;;;;;;;;5092668;28;20127;-87
2023/11/20 06:49:05;;;;;;;8.57;2.85;;;;;;;;;;5092962;28;20465;-85
2023/11/20 06:51:31;;;;;;;10.23;2.17;;;;;;;;;;5092824;28;20013;-86
2023/11/20 06:53:56;;;;;;;18.90;2.73;;;;;;;;;;5091516;28;20421;-86
2023/11/20 06:56:21;;;;;;;10.73;2.63;;;;;;;;;;5087277;28;20685;-85
2023/11/20 06:58:47;;;;;;;11.95;2.40;;;;;;;;;;5095598;28;20519;-85
2023/11/20 07:01:12;;;;;;;13.73;2.45;;;;;;;;;;5096689;28;20024;-85
2023/11/20 07:03:42;;;;;;;15.88;2.50;;;;;;;;;;5096753;28;20055;-86
2023/11/20 07:06:09;;;;;;;11.40;2.65;;;;;;;;;;5095182;28;20362;-85
2023/11/20 07:08:34;;;;;;;9.32;2.03;;;;;;;;;;5096058;28;20028;-85
2023/11/20 07:10:59;;;;;;;8.57;1.50;;;;;;;;;;5092725;28;20035;-85
2023/11/20 07:13:24;;;;;;;11.52;1.90;;;;;;;;;;5092801;28;20048;-85
2023/11/20 07:15:50;;;;;;;9.03;1.90;;;;;;;;;;5096206;28;20019;-86
2023/11/20 07:18:15;;;;;;;7.10;1.80;;;;;;;;;;5095460;28;20032;-87
2023/11/20 07:20:42;;;;;;;8.10;1.80;;;;;;;;;;5095759;28;20327;-85
2023/11/20 07:23:08;;;;;;;8.80;2.03;;;;;;;;;;5096021;28;20288;-85
2023/11/20 07:25:34;;;;;;;13.68;2.17;;;;;;;;;;5095922;28;20385;-85
2023/11/20 07:28:02;;;;;;;12.63;1.95;;;;;;;;;;5095873;28;20472;-90
2023/11/20 07:30:29;;;;;;;12.10;2.78;;;;;;;;;;5089402;28;20024;-85
2023/11/20 07:32:55;;;;;;;15.82;2.45;;;;;;;;;;5096047;28;20369;-85
2023/11/20 07:35:20;;;;;;;14.98;3.28;;;;;;;;;;5095835;28;20028;-85
2023/11/20 07:37:45;;;;;;;11.40;3.13;;;;;;;;;;5094678;28;20441;-87
2023/11/20 07:40:11;;;;;;;12.87;2.80;;;;;;;;;;5102480;28;20376;-85
2023/11/20 07:42:43;;;;;;;10.68;2.30;;;;;;;;;;5094604;28;20497;-85
2023/11/20 07:45:09;;;;;;;10.20;2.17;;;;;;;;;;5088317;28;20019;-89
2023/11/20 07:47:34;;;;;;;12.82;2.47;;;;;;;;;;5102859;28;20368;-87
2023/11/20 07:49:59;;;;;;;15.57;2.67;;;;;;;;;;5092278;28;20024;-86
2023/11/20 07:52:25;;;;;;;10.27;2.22;;;;;;;;;;5101622;28;20027;-86
2023/11/20 07:54:51;;;;;;;8.25;2.05;;;;;;;;;;5103180;28;20106;-89
2023/11/20 07:57:17;;;;;;;14.88;2.85;;;;;;;;;;5098681;28;20020;-86
2023/11/20 07:59:42;;;;;;;13.07;2.40;;;;;;;;;;5099159;28;20022;-85
2023/11/20 08:02:08;;;;;;;17.60;2.43;;;;;;;;;;5096655;28;20028;-85
2023/11/20 08:04:33;;;;;;;14.55;2.60;;;;;;;;;;5094339;28;20024;-85
2023/11/20 08:06:58;;;;;;;15.05;2.85;;;;;;;;;;5095205;28;20040;-86
2023/11/20 08:09:24;;;;;;;9.60;2.40;;;;;;;;;;5091810;28;20027;-86
2023/11/20 08:11:49;;;;;;;11.13;3.10;;;;;;;;;;5094141;28;20281;-85
2023/11/20 08:14:15;;;;;;;10.63;2.13;;;;;;;;;;5095126;28;20438;-85
2023/11/20 08:16:41;;;;;;;12.23;2.47;;;;;;;;;;5094237;28;20025;-86
2023/11/20 08:19:06;;;;;;;10.52;2.10;;;;;;;;;;5092635;28;20077;-85
2023/11/20 08:21:31;;;;;;;10.18;2.75;;;;;;;;;;5094918;28;20020;-85
2023/11/20 08:23:56;;;;;;;4.27;1.57;;;;;;;;;;5077025;28;20453;-85
2023/11/20 08:26:22;;;;;;;14.50;2.53;;;;;;;;;;5077058;28;20618;-86
2023/11/20 08:28:47;;;;;;;9.60;2.20;;;;;;;;;;5094974;28;20477;-86
2023/11/20 08:31:13;;;;;;;13.57;2.65;;;;;;;;;;5095304;28;20016;-85
2023/11/20 08:33:38;;;;;;;6.72;2.10;;;;;;;;;;5094052;28;20471;-85
2023/11/20 08:36:06;;;;;;;12.67;2.27;;;;;;;;;;5091091;28;20024;-85
2023/11/20 08:38:32;;;;;;;9.57;2.55;;;;;;;;;;5094836;28;20346;-86
2023/11/20 08:40:58;;;;;;;10.38;2.35;;;;;;;;;;5093501;28;20016;-85
2023/11/20 08:43:23;;;;;;;7.88;1.80;;;;;;;;;;5094322;28;20035;-87
2023/11/20 08:45:48;;;;;;;8.60;1.97;;;;;;;;;;5094613;28;20036;-86
2023/11/20 08:48:15;;;;;;;16.33;2.57;;;;;;;;;;5108978;28;20256;-85
2023/11/20 08:50:40;;;;;;;11.50;2.45;;;;;;;;;;5106754;28;20020;-86
2023/11/20 08:53:05;;;;;;;8.40;2.25;;;;;;;;;;5074366;28;20032;-85
2023/11/20 08:55:30;;;;;;;8.47;2.10;;;;;;;;;;5088576;28;20020;-86
2023/11/20 08:57:56;;;;;;;11.37;1.93;;;;;;;;;;5091892;28;20273;-86
2023/11/20 09:00:21;;;;;;;8.30;1.60;;;;;;;;;;5093885;28;20248;-87
2023/11/20 09:02:46;;;;;;;10.75;2.00;;;;;;;;;;5093675;28;20575;-86
2023/11/20 09:05:13;;;;;;;7.33;2.00;;;;;;;;;;5094160;28;20024;-86
2023/11/20 09:07:38;;;;;;;8.63;1.83;;;;;;;;;;5091748;28;20387;-85
2023/11/20 09:10:04;;;;;;;7.65;1.77;;;;;;;;;;5074263;28;20533;-86
2023/11/20 09:12:30;;;;;;;9.27;1.92;;;;;;;;;;5088111;28;20368;-86
2023/11/20 09:14:55;;;;;;;5.18;1.55;;;;;;;;;;5075897;28;20028;-86
2023/11/20 09:17:20;;;;;;;6.47;1.50;;;;;;;;;;5095961;28;20063;-86
2023/11/20 09:19:46;;;;;;;5.83;1.33;;;;;;;;;;5093443;28;20110;-86
2023/11/20 09:22:11;;;;;;;8.83;1.47;;;;;;;;;;5094043;28;20020;-86
2023/11/20 09:24:36;;;;;;;5.40;1.40;;;;;;;;;;5094020;28;20020;-86
2023/11/20 09:27:01;;;;;;;12.40;1.80;;;;;;;;;;5093717;28;20411;-86
2023/11/20 09:29:26;;;;;;;7.47;1.53;;;;;;;;;;5078876;28;20761;-87
2023/11/20 09:31:54;;;;;;;7.77;1.10;;;;;;;;;;5093878;28;20020;-86
2023/11/20 09:34:20;;;;;;;7.93;1.55;;;;;;;;;;5100321;28;20309;-86
2023/11/20 09:36:45;;;;;;;6.37;1.43;;;;;;;;;;5103118;28;20032;-86
2023/11/20 09:39:13;;;;;;;9.53;1.43;;;;;;;;;;5105970;28;20325;-86
2023/11/20 09:41:40;;;;;;;6.70;1.60;;;;;;;;;;5076321;28;20166;-85
2023/11/20 09:44:06;;;;;;;7.03;1.33;;;;;;;;;;5104805;28;20102;-85
2023/11/20 09:46:34;;;;;;;8.77;1.80;;;;;;;;;;5086281;28;20103;-86
2023/11/20 09:48:59;;;;;;;6.60;1.75;;;;;;;;;;5082815;28;20387;-86
2023/11/20 09:51:25;;;;;;;9.05;1.55;;;;;;;;;;5101762;28;20460;-88
2023/11/20 09:53:52;;;;;;;5.97;1.42;;;;;;;;;;5087267;28;20031;-91
2023/11/20 09:56:17;;;;;;;6.45;1.45;;;;;;;;;;5058102;28;20031;-86
2023/11/20 09:58:43;;;;;;;8.88;1.90;;;;;;;;;;5072832;28;20020;-86
2023/11/20 10:01:12;;;;;;;9.15;1.60;;;;;;;;;;5089010;28;20008;-85
2023/11/20 10:03:39;;;;;;;9.25;1.83;;;;;;;;;;5092732;28;20024;-86
2023/11/20 10:06:08;;;;;;;5.80;1.50;;;;;;;;;;5090879;28;20024;-85
2023/11/20 10:08:36;;;;;;;8.10;1.73;;;;;;;;;;5092424;28;20074;-86
2023/11/20 10:11:01;;;;;;;10.50;1.73;;;;;;;;;;5092896;28;20035;-87
2023/11/20 10:13:26;;;;;;;6.72;1.42;;;;;;;;;;5092119;28;20072;-86
2023/11/20 10:15:53;;;;;;;7.70;1.50;;;;;;;;;;5089080;28;20032;-85
2023/11/20 10:18:18;;;;;;;7.43;1.50;;;;;;;;;;5092131;28;20024;-86
2023/11/20 10:20:44;;;;;;;8.27;1.40;;;;;;;;;;5092434;28;20094;-86
2023/11/20 10:23:10;;;;;;;5.10;1.50;;;;;;;;;;5092869;28;20537;-86
2023/11/20 10:25:35;;;;;;;9.55;1.52;;;;;;;;;;5091789;28;20095;-86
2023/11/20 10:28:01;;;;;;;11.00;2.13;;;;;;;;;;5093111;28;20087;-86
2023/11/20 10:30:26;;;;;;;10.00;2.07;;;;;;;;;;5092707;28;20024;-86
2023/11/20 10:32:51;;;;;;;8.98;2.15;;;;;;;;;;5092666;28;20070;-86
2023/11/20 10:35:17;;;;;;;8.30;1.88;;;;;;;;;;5096699;28;20073;-86
2023/11/20 10:37:58;;;;;;;9.10;1.95;;;;;;;;;;5096539;28;20077;-86
2023/11/20 10:40:27;;;;;;;6.18;1.55;;;;;;;;;;5095127;28;20429;-85
2023/11/20 10:42:55;;;;;;;6.97;1.75;;;;;;;;;;5095822;28;20024;-86
2023/11/20 10:45:22;;;;;;;7.43;1.60;;;;;;;;;;5094451;28;20376;-86
2023/11/20 10:47:48;;;;;;;15.05;2.03;;;;;;;;;;5090514;28;20031;-86
2023/11/20 10:50:15;;;;;;;6.60;1.60;;;;;;;;;;5100137;28;20035;-86
2023/11/20 10:52:40;;;;;;;6.25;1.25;;;;;;;;;;5078377;28;20384;-85
2023/11/20 10:55:09;;;;;;;8.52;1.83;;;;;;;;;;5080103;28;20473;-85
2023/11/20 10:57:35;;;;;;;8.95;1.55;;;;;;;;;;5077870;28;20364;-86
2023/11/20 11:00:10;;;;;;;7.03;1.40;;;;;;;;;;5076556;28;20475;-86
2023/11/20 11:02:40;;;;;;;6.85;1.42;;;;;;;;;;5087889;28;20480;-85
2023/11/20 11:05:06;;;;;;;5.25;1.45;;;;;;;;;;5080229;28;20020;-85
2023/11/20 11:07:33;;;;;;;4.65;1.20;;;;;;;;;;5095071;28;20457;-86
2023/11/20 11:09:59;;;;;;;4.55;1.10;;;;;;;;;;5097587;28;20194;-87
2023/11/20 11:12:26;;;;;;;6.30;1.33;;;;;;;;;;5096051;28;20075;-86
2023/11/20 11:14:51;;;;;;;5.43;1.38;;;;;;;;;;5096411;28;20085;-86
2023/11/20 11:17:19;;;;;;;5.57;1.38;;;;;;;;;;5096291;28;20020;-86
2023/11/20 11:19:46;;;;;;;5.35;1.05;;;;;;;;;;5096487;28;20484;-87
2023/11/20 11:22:14;;;;;;;4.15;0.90;;;;;;;;;;5090464;28;20028;-88
2023/11/20 11:24:40;;;;;;;4.25;0.90;;;;;;;;;;5096576;28;20030;-86
2023/11/20 11:27:09;;;;;;;6.20;1.02;;;;;;;;;;5080288;28;20032;-87
2023/11/20 11:29:36;;;;;;;5.90;1.23;;;;;;;;;;5085797;28;20031;-86
2023/11/20 11:32:01;;;;;;;5.50;1.02;;;;;;;;;;5099274;28;20076;-86
2023/11/20 11:34:37;;;;;;;2.33;0.80;;;;;;;;;;5104091;28;20099;-85
2023/11/20 11:37:18;;;;;;;2.28;0.88;;;;;;;;;;5106259;28;20030;-85
2023/11/20 11:39:46;;;;;;;8.45;1.30;;;;;;;;;;5102359;28;20220;-87
2023/11/20 11:42:17;;;;;;;4.95;0.80;;;;;;;;;;5093698;28;20358;-86
2023/11/20 11:44:43;;;;;;;7.47;2.17;;;;;;;;;;5095378;28;20055;-86
2023/11/20 11:47:12;;;;;;;2.97;0.90;;;;;;;;;;5095204;28;20024;-86
2023/11/20 11:49:44;;;;;;;5.75;1.00;;;;;;;;;;5103350;28;20030;-88
2023/11/20 11:52:10;;;;;;;8.43;1.30;;;;;;;;;;5095295;28;20020;-85
2023/11/20 11:54:35;;;;;;;5.83;1.07;;;;;;;;;;5095671;28;20381;-86
2023/11/20 11:57:13;;;;;;;13.77;1.77;;;;;;;;;;5093558;28;20591;-87
2023/11/20 11:59:40;;;;;;;4.10;0.77;;;;;;;;;;5095672;28;20257;-86
2023/11/20 12:02:05;;;;;;;8.63;1.33;;;;;;;;;;5076808;28;20027;-86
2023/11/20 12:04:49;;;;;;;6.60;1.30;;;;;;;;;;5101733;28;20019;-85
2023/11/20 12:07:14;;;;;;;5.13;1.30;;;;;;;;;;5103038;28;20036;-85
2023/11/20 12:09:55;;;;;;;4.72;0.65;;;;;;;;;;5095202;28;20038;-85
2023/11/20 12:12:40;;;;;;;6.25;1.05;;;;;;;;;;5093134;28;20040;-86
2023/11/20 12:15:25;;;;;;;5.10;0.98;;;;;;;;;;5094098;28;20473;-86
2023/11/20 12:17:52;;;;;;;10.63;1.38;;;;;;;;;;5077692;28;20465;-86
2023/11/20 12:20:17;;;;;;;6.47;0.98;;;;;;;;;;5091663;28;20469;-86
2023/11/20 12:22:42;;;;;;;5.13;1.03;;;;;;;;;;5094897;28;20028;-86
2023/11/20 12:25:07;;;;;;;4.93;1.20;;;;;;;;;;5094401;28;20602;-85
2023/11/20 12:27:36;;;;;;;3.83;0.70;;;;;;;;;;5093686;28;20073;-85
2023/11/20 12:30:02;;;;;;;4.65;1.00;;;;;;;;;;5094322;28;20568;-86
2023/11/20 12:32:27;;;;;;;4.03;1.00;;;;;;;;;;5094484;28;20028;-85
2023/11/20 12:34:53;;;;;;;8.23;1.17;;;;;;;;;;5093094;28;20024;-86
2023/11/20 12:37:18;;;;;;;6.93;1.27;;;;;;;;;;5077867;28;20079;-86
2023/11/20 12:39:44;;;;;;;13.93;1.10;;;;;;;;;;5094542;28;20027;-86
2023/11/20 12:42:10;;;;;;;3.55;1.25;;;;;;;;;;5097553;28;20028;-86
2023/11/20 12:44:35;;;;;;;5.97;0.75;;;;;;;;;;5094749;28;20373;-84
2023/11/20 12:47:04;;;;;;;10.00;1.00;;;;;;;;;;5093840;28;20039;-88
2023/11/20 12:49:29;;;;;;;6.15;1.00;;;;;;;;;;5084607;28;20476;-85
2023/11/20 12:51:54;;;;;;;6.43;1.50;;;;;;;;;;5093360;28;20050;-85
2023/11/20 12:54:20;;;;;;;6.63;1.50;;;;;;;;;;5094684;28;20299;-85
2023/11/20 12:56:45;;;;;;;2.50;0.70;;;;;;;;;;5093955;28;20268;-85
2023/11/20 12:59:12;;;;;;;4.90;0.90;;;;;;;;;;5093887;28;20057;-85
2023/11/20 13:01:37;;;;;;;7.03;1.00;;;;;;;;;;5092705;28;20260;-85
2023/11/20 13:04:04;;;;;;;10.27;1.13;;;;;;;;;;5094252;28;20031;-86
2023/11/20 13:06:30;;;;;;;4.43;0.77;;;;;;;;;;5093862;28;20285;-85
2023/11/20 13:08:55;;;;;;;3.50;0.63;;;;;;;;;;5092467;28;20035;-85
2023/11/20 13:11:22;;;;;;;9.82;0.95;;;;;;;;;;5092444;28;20529;-85
2023/11/20 13:13:48;;;;;;;4.85;0.85;;;;;;;;;;5092639;28;20027;-86
2023/11/20 13:16:15;;;;;;;3.70;0.80;;;;;;;;;;5093583;28;20381;-85
2023/11/20 13:18:47;;;;;;;6.13;1.10;;;;;;;;;;5094518;28;20244;-85
2023/11/20 13:21:22;;;;;;;3.92;0.90;;;;;;;;;;5080134;28;20118;-85
2023/11/20 13:23:56;;;;;;;7.43;1.02;;;;;;;;;;5092860;28;20022;-85
2023/11/20 13:26:22;;;;;;;6.80;1.48;;;;;;;;;;5089582;28;20039;-85
2023/11/20 13:28:47;;;;;;;5.32;1.10;;;;;;;;;;5093176;28;20028;-85
2023/11/20 13:31:13;;;;;;;5.05;0.93;;;;;;;;;;5092781;28;20514;-85
2023/11/20 13:33:42;;;;;;;4.07;0.90;;;;;;;;;;5092710;28;20023;-85
2023/11/20 13:36:08;;;;;;;2.67;1.15;;;;;;;;;;5092200;28;20020;-85
2023/11/20 13:38:34;;;;;;;4.93;0.88;;;;;;;;;;5093526;28;20024;-86
2023/11/20 13:41:00;;;;;;;8.27;0.93;;;;;;;;;;5093426;28;20020;-86
2023/11/20 13:43:27;;;;;;;6.85;1.10;;;;;;;;;;5091458;28;20103;-86
2023/11/20 13:45:52;;;;;;;2.70;0.80;;;;;;;;;;5092459;28;20465;-87
2023/11/20 13:48:18;;;;;;;6.10;1.00;;;;;;;;;;5092656;28;20153;-86
2023/11/20 13:50:43;;;;;;;2.72;0.75;;;;;;;;;;5093147;28;20024;-86
2023/11/20 13:53:10;;;;;;;5.43;0.85;;;;;;;;;;5082692;28;20377;-86
2023/11/20 13:55:36;;;;;;;8.30;1.65;;;;;;;;;;5091186;28;20020;-86
2023/11/20 13:58:01;;;;;;;3.45;1.08;;;;;;;;;;5093087;28;20479;-87
2023/11/20 14:00:26;;;;;;;2.53;0.77;;;;;;;;;;5092910;28;20024;-87
2023/11/20 14:02:51;;;;;;;5.40;1.43;;;;;;;;;;5091472;28;20267;-86
2023/11/20 14:05:17;;;;;;;3.43;1.13;;;;;;;;;;5094498;28;20787;-87
2023/11/20 14:07:45;;;;;;;4.00;1.02;;;;;;;;;;5093484;28;20280;-86
2023/11/20 14:10:11;;;;;;;5.82;1.10;;;;;;;;;;5095751;28;20023;-86
2023/11/20 14:12:37;;;;;;;7.20;1.42;;;;;;;;;;5097262;28;20048;-88
2023/11/20 14:15:03;;;;;;;6.10;1.30;;;;;;;;;;5093818;28;20449;-88
2023/11/20 14:17:28;;;;;;;5.55;0.80;;;;;;;;;;5093861;28;20016;-86
2023/11/20 14:19:54;;;;;;;4.53;0.90;;;;;;;;;;5097269;28;20027;-86
2023/11/20 14:22:19;;;;;;;4.67;0.60;;;;;;;;;;5095959;28;20035;-86
2023/11/20 14:24:44;;;;;;;6.55;0.80;;;;;;;;;;5097645;28;20248;-86
2023/11/20 14:27:09;;;;;;;4.63;0.87;;;;;;;;;;5096547;28;20594;-86
2023/11/20 14:29:35;;;;;;;6.70;1.00;;;;;;;;;;5095858;28;20024;-87